createdAt,value
2017-03-28T00:00:18.769Z,13.6
2017-03-28T00:00:44.922Z,13.6
2017-03-28T00:01:11.027Z,13.67
2017-03-28T00:01:37.110Z,13.62
2017-03-28T00:02:03.238Z,13.6
2017-03-28T00:02:29.343Z,13.67
2017-03-28T00:02:55.446Z,13.65
2017-03-28T00:03:21.593Z,13.59
2017-03-28T00:03:47.765Z,13.67
2017-03-28T00:04:13.892Z,13.6
2017-03-28T00:04:40.021Z,13.59
2017-03-28T00:05:06.173Z,13.5
2017-03-28T00:05:32.254Z,13.56
2017-03-28T00:05:58.333Z,13.5
2017-03-28T00:06:24.438Z,13.41
2017-03-28T00:06:50.563Z,13.47
2017-03-28T00:07:16.692Z,13.41
2017-03-28T00:07:42.820Z,13.53
2017-03-28T00:08:08.968Z,13.52
2017-03-28T00:08:35.094Z,13.5
2017-03-28T00:09:01.244Z,13.44
2017-03-28T00:09:27.400Z,13.5
2017-03-28T00:09:53.524Z,13.41
2017-03-28T00:10:19.650Z,13.46
2017-03-28T00:10:45.757Z,13.38
2017-03-28T00:11:11.837Z,13.38
2017-03-28T00:11:37.917Z,13.42
2017-03-28T00:12:04.021Z,13.33
2017-03-28T00:12:30.104Z,13.42
2017-03-28T00:12:56.213Z,13.37
2017-03-28T00:13:22.337Z,13.3
2017-03-28T00:13:48.509Z,13.38
2017-03-28T00:14:14.609Z,13.25
2017-03-28T00:14:40.717Z,13.3
2017-03-28T00:15:06.846Z,13.33
2017-03-28T00:15:32.925Z,13.28
2017-03-28T00:15:59.006Z,13.35
2017-03-28T00:16:25.110Z,13.35
2017-03-28T00:16:51.191Z,13.3
2017-03-28T00:17:17.317Z,13.35
2017-03-28T00:17:43.421Z,13.41
2017-03-28T00:18:09.594Z,13.44
2017-03-28T00:18:35.697Z,13.37
2017-03-28T00:19:01.825Z,13.46
2017-03-28T00:19:27.933Z,13.41
2017-03-28T00:19:54.038Z,13.46
2017-03-28T00:20:20.166Z,13.38
2017-03-28T00:20:46.247Z,13.35
2017-03-28T00:21:12.327Z,13.35
2017-03-28T00:21:38.431Z,13.44
2017-03-28T00:22:04.515Z,13.49
2017-03-28T00:22:30.635Z,13.47
2017-03-28T00:22:56.764Z,13.44
2017-03-28T00:23:22.918Z,13.37
2017-03-28T00:23:49.022Z,13.47
2017-03-28T00:24:15.175Z,13.38
2017-03-28T00:24:41.280Z,13.46
2017-03-28T00:25:07.408Z,13.42
2017-03-28T00:25:33.489Z,13.41
2017-03-28T00:25:59.590Z,13.39
2017-03-28T00:26:25.717Z,13.41
2017-03-28T00:26:51.822Z,13.44
2017-03-28T00:27:17.928Z,13.33
2017-03-28T00:27:44.027Z,13.41
2017-03-28T00:28:10.175Z,13.37
2017-03-28T00:28:36.302Z,13.28
2017-03-28T00:29:02.404Z,13.25
2017-03-28T00:29:28.530Z,13.27
2017-03-28T00:29:54.632Z,13.22
2017-03-28T00:30:20.759Z,13.27
2017-03-28T00:30:46.840Z,13.22
2017-03-28T00:31:12.941Z,13.25
2017-03-28T00:31:39.048Z,13.25
2017-03-28T00:32:05.197Z,13.3
2017-03-28T00:32:31.303Z,13.28
2017-03-28T00:32:57.430Z,13.28
2017-03-28T00:33:23.585Z,13.23
2017-03-28T00:33:49.713Z,13.27
2017-03-28T00:34:15.861Z,13.19
2017-03-28T00:34:41.962Z,13.13
2017-03-28T00:35:08.067Z,13.2
2017-03-28T00:35:34.169Z,13.19
2017-03-28T00:36:00.273Z,13.13
2017-03-28T00:36:26.351Z,13.16
2017-03-28T00:36:52.452Z,13.18
2017-03-28T00:37:18.540Z,13.16
2017-03-28T00:37:44.643Z,13.08
2017-03-28T00:38:10.752Z,13.04
2017-03-28T00:38:36.876Z,13.11
2017-03-28T00:39:03.022Z,13.04
2017-03-28T00:39:29.173Z,13.11
2017-03-28T00:39:55.279Z,13.08
2017-03-28T00:40:21.409Z,13.05
2017-03-28T00:40:47.490Z,13.08
2017-03-28T00:41:13.636Z,13.04
2017-03-28T00:41:39.738Z,13.08
2017-03-28T00:42:05.820Z,13.09
2017-03-28T00:42:31.922Z,13.05
2017-03-28T00:42:58.027Z,13.04
2017-03-28T00:43:24.181Z,13.08
2017-03-28T00:43:50.349Z,13.03
2017-03-28T00:44:16.434Z,13.11
2017-03-28T00:44:42.566Z,13.15
2017-03-28T00:45:08.697Z,13.05
2017-03-28T00:45:34.799Z,13.04
2017-03-28T00:46:00.878Z,12.95
2017-03-28T00:46:27.109Z,12.93
2017-03-28T00:46:53.211Z,13.03
2017-03-28T00:47:19.294Z,12.94
2017-03-28T00:47:45.443Z,12.98
2017-03-28T00:48:11.521Z,12.93
2017-03-28T00:48:37.649Z,12.94
2017-03-28T00:49:03.799Z,13
2017-03-28T00:49:29.951Z,12.95
2017-03-28T00:49:56.058Z,13
2017-03-28T00:50:22.184Z,13
2017-03-28T00:50:48.289Z,13.01
2017-03-28T00:51:14.371Z,12.93
2017-03-28T00:51:40.496Z,12.95
2017-03-28T00:52:06.581Z,12.94
2017-03-28T00:52:32.705Z,12.95
2017-03-28T00:52:58.857Z,12.95
2017-03-28T00:53:24.987Z,13.01
2017-03-28T00:53:51.138Z,13.08
2017-03-28T00:54:17.291Z,13
2017-03-28T00:54:43.395Z,12.95
2017-03-28T00:55:09.498Z,13
2017-03-28T00:55:35.600Z,12.94
2017-03-28T00:56:01.705Z,12.85
2017-03-28T00:56:27.788Z,12.85
2017-03-28T00:56:53.912Z,12.87
2017-03-28T00:57:19.993Z,12.87
2017-03-28T00:57:46.124Z,12.97
2017-03-28T00:58:12.272Z,12.95
2017-03-28T00:58:38.446Z,12.98
2017-03-28T00:59:04.573Z,12.94
2017-03-28T00:59:30.703Z,12.86
2017-03-28T00:59:56.833Z,12.94
2017-03-28T01:00:22.962Z,12.94
2017-03-28T01:00:49.046Z,12.97
2017-03-28T01:01:15.171Z,12.91
2017-03-28T01:01:41.577Z,12.91
2017-03-28T01:02:07.656Z,12.87
2017-03-28T01:02:33.763Z,12.95
2017-03-28T01:02:59.870Z,12.95
2017-03-28T01:03:26.000Z,12.94
2017-03-28T01:03:52.179Z,12.9
2017-03-28T01:04:18.327Z,12.87
2017-03-28T01:04:44.450Z,12.85
2017-03-28T01:05:10.526Z,12.86
2017-03-28T01:05:36.653Z,12.93
2017-03-28T01:06:02.780Z,12.82
2017-03-28T01:06:28.863Z,12.9
2017-03-28T01:06:54.964Z,12.9
2017-03-28T01:07:21.066Z,12.98
2017-03-28T01:07:47.216Z,12.94
2017-03-28T01:08:13.370Z,12.98
2017-03-28T01:08:39.496Z,12.97
2017-03-28T01:09:05.622Z,12.97
2017-03-28T01:09:31.752Z,12.94
2017-03-28T01:09:57.873Z,12.87
2017-03-28T01:10:23.977Z,12.86
2017-03-28T01:10:50.061Z,12.93
2017-03-28T01:11:16.145Z,12.86
2017-03-28T01:11:42.239Z,12.94
2017-03-28T01:12:08.343Z,12.86
2017-03-28T01:12:34.449Z,12.97
2017-03-28T01:13:00.576Z,13.01
2017-03-28T01:13:26.679Z,12.95
2017-03-28T01:13:52.807Z,12.86
2017-03-28T01:14:18.936Z,12.83
2017-03-28T01:14:45.083Z,12.85
2017-03-28T01:15:11.167Z,12.95
2017-03-28T01:15:37.247Z,13
2017-03-28T01:16:03.326Z,12.87
2017-03-28T01:16:29.408Z,12.8
2017-03-28T01:16:55.516Z,12.9
2017-03-28T01:17:21.645Z,12.93
2017-03-28T01:17:47.797Z,12.91
2017-03-28T01:18:13.949Z,12.93
2017-03-28T01:18:40.119Z,12.91
2017-03-28T01:19:06.226Z,12.8
2017-03-28T01:19:32.354Z,12.79
2017-03-28T01:19:58.477Z,12.83
2017-03-28T01:20:24.582Z,12.82
2017-03-28T01:20:50.688Z,12.82
2017-03-28T01:21:16.791Z,12.93
2017-03-28T01:21:42.869Z,12.91
2017-03-28T01:22:08.952Z,12.9
2017-03-28T01:22:35.082Z,12.87
2017-03-28T01:23:01.233Z,12.98
2017-03-28T01:23:27.360Z,12.86
2017-03-28T01:23:53.534Z,12.94
2017-03-28T01:24:19.662Z,12.86
2017-03-28T01:24:45.793Z,12.87
2017-03-28T01:25:11.893Z,12.95
2017-03-28T01:25:37.973Z,12.93
2017-03-28T01:26:04.099Z,12.87
2017-03-28T01:26:30.227Z,12.94
2017-03-28T01:26:56.351Z,12.91
2017-03-28T01:27:22.430Z,12.94
2017-03-28T01:27:48.559Z,12.93
2017-03-28T01:28:14.686Z,12.97
2017-03-28T01:28:40.835Z,13
2017-03-28T01:29:06.986Z,12.97
2017-03-28T01:29:33.136Z,12.93
2017-03-28T01:29:59.264Z,12.95
2017-03-28T01:30:25.347Z,12.95
2017-03-28T01:30:51.423Z,12.91
2017-03-28T01:31:17.506Z,12.98
2017-03-28T01:31:43.609Z,12.98
2017-03-28T01:32:09.689Z,12.86
2017-03-28T01:32:35.770Z,12.86
2017-03-28T01:33:01.876Z,12.93
2017-03-28T01:33:27.959Z,12.97
2017-03-28T01:33:54.129Z,12.97
2017-03-28T01:34:20.253Z,12.94
2017-03-28T01:34:46.385Z,12.97
2017-03-28T01:35:12.490Z,12.94
2017-03-28T01:35:38.595Z,12.97
2017-03-28T01:36:04.701Z,12.94
2017-03-28T01:36:30.806Z,12.91
2017-03-28T01:36:56.939Z,12.98
2017-03-28T01:37:23.058Z,13
2017-03-28T01:37:49.188Z,12.94
2017-03-28T01:38:15.316Z,12.94
2017-03-28T01:38:41.444Z,12.91
2017-03-28T01:39:07.550Z,12.93
2017-03-28T01:39:33.701Z,12.93
2017-03-28T01:39:59.806Z,12.95
2017-03-28T01:40:25.911Z,12.97
2017-03-28T01:40:51.988Z,12.95
2017-03-28T01:41:18.071Z,13.01
2017-03-28T01:41:44.174Z,12.94
2017-03-28T01:42:10.254Z,12.98
2017-03-28T01:42:36.360Z,12.94
2017-03-28T01:43:02.507Z,12.94
2017-03-28T01:43:28.634Z,12.86
2017-03-28T01:43:54.765Z,12.87
2017-03-28T01:44:20.916Z,12.82
2017-03-28T01:44:47.046Z,12.86
2017-03-28T01:45:13.195Z,12.82
2017-03-28T01:45:39.300Z,12.8
2017-03-28T01:46:05.381Z,12.75
2017-03-28T01:46:31.482Z,12.65
2017-03-28T01:46:57.589Z,12.75
2017-03-28T01:47:23.847Z,12.76
2017-03-28T01:47:49.950Z,12.68
2017-03-28T01:48:16.099Z,12.76
2017-03-28T01:48:42.228Z,12.83
2017-03-28T01:49:08.356Z,12.85
2017-03-28T01:49:34.481Z,12.72
2017-03-28T01:50:00.620Z,12.72
2017-03-28T01:50:26.699Z,12.7
2017-03-28T01:50:52.802Z,12.75
2017-03-28T01:51:18.906Z,12.67
2017-03-28T01:51:45.011Z,12.72
2017-03-28T01:52:11.090Z,12.58
2017-03-28T01:52:37.192Z,12.62
2017-03-28T01:53:03.319Z,12.78
2017-03-28T01:53:29.398Z,12.7
2017-03-28T01:53:55.545Z,12.7
2017-03-28T01:54:21.671Z,12.6
2017-03-28T01:54:47.799Z,12.6
2017-03-28T01:55:13.880Z,12.72
2017-03-28T01:55:39.983Z,12.65
2017-03-28T01:56:06.109Z,12.7
2017-03-28T01:56:32.188Z,12.8
2017-03-28T01:56:58.272Z,12.85
2017-03-28T01:57:24.373Z,12.86
2017-03-28T01:57:50.478Z,12.75
2017-03-28T01:58:16.607Z,12.79
2017-03-28T01:58:42.734Z,12.83
2017-03-28T01:59:08.861Z,12.86
2017-03-28T01:59:34.990Z,12.8
2017-03-28T02:00:01.093Z,12.64
2017-03-28T02:00:27.193Z,12.73
2017-03-28T02:00:53.298Z,12.72
2017-03-28T02:01:19.402Z,12.58
2017-03-28T02:01:45.530Z,12.7
2017-03-28T02:02:11.608Z,12.54
2017-03-28T02:02:39.126Z,12.62
2017-03-28T02:03:05.275Z,12.67
2017-03-28T02:03:31.379Z,12.72
2017-03-28T02:03:57.550Z,12.58
2017-03-28T02:04:23.653Z,12.75
2017-03-28T02:04:49.732Z,12.64
2017-03-28T02:05:15.857Z,12.72
2017-03-28T02:05:41.969Z,12.73
2017-03-28T02:06:08.049Z,12.72
2017-03-28T02:06:34.200Z,12.7
2017-03-28T02:07:00.252Z,12.75
2017-03-28T02:07:26.378Z,12.76
2017-03-28T02:07:52.529Z,12.75
2017-03-28T02:08:18.682Z,12.72
2017-03-28T02:08:44.832Z,12.79
2017-03-28T02:09:10.936Z,12.75
2017-03-28T02:09:37.063Z,12.73
2017-03-28T02:10:03.211Z,12.72
2017-03-28T02:10:29.310Z,12.82
2017-03-28T02:10:55.393Z,12.8
2017-03-28T02:11:21.496Z,12.7
2017-03-28T02:11:47.575Z,12.85
2017-03-28T02:12:13.656Z,12.75
2017-03-28T02:12:39.738Z,12.75
2017-03-28T02:13:05.887Z,12.7
2017-03-28T02:13:32.011Z,12.7
2017-03-28T02:13:58.158Z,12.7
2017-03-28T02:14:24.310Z,12.64
2017-03-28T02:14:50.441Z,12.76
2017-03-28T02:15:16.520Z,12.68
2017-03-28T02:15:42.621Z,12.68
2017-03-28T02:16:08.701Z,12.6
2017-03-28T02:16:34.782Z,12.6
2017-03-28T02:17:00.890Z,12.61
2017-03-28T02:17:27.017Z,12.6
2017-03-28T02:17:53.148Z,12.62
2017-03-28T02:18:19.278Z,12.6
2017-03-28T02:18:45.383Z,12.62
2017-03-28T02:19:11.531Z,12.62
2017-03-28T02:19:37.632Z,12.73
2017-03-28T02:20:03.735Z,12.7
2017-03-28T02:20:29.818Z,12.55
2017-03-28T02:20:55.921Z,12.57
2017-03-28T02:21:22.025Z,12.72
2017-03-28T02:21:48.128Z,12.62
2017-03-28T02:22:14.209Z,12.78
2017-03-28T02:22:40.332Z,12.68
2017-03-28T02:23:06.458Z,12.64
2017-03-28T02:23:32.594Z,12.61
2017-03-28T02:23:58.712Z,12.7
2017-03-28T02:24:24.839Z,12.62
2017-03-28T02:24:50.946Z,12.73
2017-03-28T02:25:17.098Z,12.75
2017-03-28T02:25:43.179Z,12.73
2017-03-28T02:26:09.257Z,12.64
2017-03-28T02:26:35.339Z,12.64
2017-03-28T02:27:01.466Z,12.65
2017-03-28T02:27:27.591Z,12.65
2017-03-28T02:27:53.698Z,12.53
2017-03-28T02:28:19.824Z,12.55
2017-03-28T02:28:45.996Z,12.64
2017-03-28T02:29:12.101Z,12.7
2017-03-28T02:29:38.207Z,12.61
2017-03-28T02:30:04.336Z,12.72
2017-03-28T02:30:30.438Z,12.72
2017-03-28T02:30:56.519Z,12.65
2017-03-28T02:31:22.620Z,12.64
2017-03-28T02:31:48.703Z,12.7
2017-03-28T02:32:14.786Z,12.64
2017-03-28T02:32:40.887Z,12.61
2017-03-28T02:33:06.968Z,12.62
2017-03-28T02:33:33.097Z,12.64
2017-03-28T02:33:59.247Z,12.61
2017-03-28T02:34:25.349Z,12.65
2017-03-28T02:34:51.539Z,12.61
2017-03-28T02:35:17.675Z,12.57
2017-03-28T02:35:43.753Z,12.65
2017-03-28T02:36:09.856Z,12.61
2017-03-28T02:36:35.963Z,12.65
2017-03-28T02:37:02.069Z,12.55
2017-03-28T02:37:28.170Z,12.61
2017-03-28T02:37:54.297Z,12.68
2017-03-28T02:38:20.445Z,12.62
2017-03-28T02:38:46.638Z,12.7
2017-03-28T02:39:12.720Z,12.62
2017-03-28T02:39:38.824Z,12.7
2017-03-28T02:40:04.927Z,12.68
2017-03-28T02:40:31.007Z,12.64
2017-03-28T02:40:57.089Z,12.65
2017-03-28T02:41:23.169Z,12.61
2017-03-28T02:41:49.273Z,12.65
2017-03-28T02:42:15.381Z,12.61
2017-03-28T02:42:41.508Z,12.64
2017-03-28T02:43:07.633Z,12.68
2017-03-28T02:43:33.785Z,12.61
2017-03-28T02:43:59.936Z,12.6
2017-03-28T02:44:26.043Z,12.7
2017-03-28T02:44:52.174Z,12.67
2017-03-28T02:45:18.277Z,12.62
2017-03-28T02:45:44.380Z,12.61
2017-03-28T02:46:10.481Z,12.55
2017-03-28T02:46:36.608Z,12.5
2017-03-28T02:47:02.690Z,12.46
2017-03-28T02:47:28.794Z,12.47
2017-03-28T02:47:54.893Z,12.42
2017-03-28T02:48:21.041Z,12.4
2017-03-28T02:48:47.191Z,12.42
2017-03-28T02:49:13.321Z,12.27
2017-03-28T02:49:39.404Z,12.32
2017-03-28T02:50:05.507Z,12.36
2017-03-28T02:50:31.587Z,12.13
2017-03-28T02:50:57.667Z,12.22
2017-03-28T02:51:23.769Z,12.27
2017-03-28T02:51:49.871Z,12.27
2017-03-28T02:52:15.977Z,12.2
2017-03-28T02:52:42.099Z,12.13
2017-03-28T02:53:08.226Z,12.13
2017-03-28T02:53:34.347Z,12.18
2017-03-28T02:54:00.456Z,12.22
2017-03-28T02:54:26.587Z,12.17
2017-03-28T02:54:52.693Z,12.24
2017-03-28T02:55:18.818Z,12.22
2017-03-28T02:55:44.897Z,12.24
2017-03-28T02:56:10.977Z,12.21
2017-03-28T02:56:37.083Z,12.17
2017-03-28T02:57:03.165Z,12.24
2017-03-28T02:57:29.292Z,12.22
2017-03-28T02:57:55.419Z,12.18
2017-03-28T02:58:21.546Z,12.06
2017-03-28T02:58:47.697Z,12.13
2017-03-28T02:59:13.844Z,12
2017-03-28T02:59:39.947Z,12.03
2017-03-28T03:00:06.098Z,11.91
2017-03-28T03:00:32.202Z,11.88
2017-03-28T03:00:58.281Z,11.9
2017-03-28T03:01:24.364Z,11.94
2017-03-28T03:01:50.492Z,11.88
2017-03-28T03:02:16.598Z,11.9
2017-03-28T03:02:42.726Z,11.86
2017-03-28T03:03:08.855Z,11.84
2017-03-28T03:03:35.008Z,11.84
2017-03-28T03:04:01.157Z,11.8
2017-03-28T03:04:27.238Z,11.75
2017-03-28T03:04:53.340Z,11.78
2017-03-28T03:05:19.464Z,11.69
2017-03-28T03:05:45.617Z,11.66
2017-03-28T03:06:11.721Z,11.78
2017-03-28T03:06:37.825Z,11.7
2017-03-28T03:07:03.973Z,11.68
2017-03-28T03:07:30.077Z,11.63
2017-03-28T03:07:56.200Z,11.69
2017-03-28T03:08:22.326Z,11.69
2017-03-28T03:08:48.451Z,11.65
2017-03-28T03:09:14.602Z,11.6
2017-03-28T03:09:40.727Z,11.47
2017-03-28T03:10:06.828Z,11.51
2017-03-28T03:10:32.911Z,11.54
2017-03-28T03:10:59.016Z,11.51
2017-03-28T03:11:25.122Z,11.51
2017-03-28T03:11:51.201Z,11.63
2017-03-28T03:12:17.307Z,11.55
2017-03-28T03:12:43.433Z,11.45
2017-03-28T03:13:09.538Z,11.54
2017-03-28T03:13:35.642Z,11.52
2017-03-28T03:14:01.727Z,11.51
2017-03-28T03:14:27.847Z,11.51
2017-03-28T03:14:53.931Z,11.54
2017-03-28T03:15:20.065Z,11.54
2017-03-28T03:15:46.172Z,11.54
2017-03-28T03:16:12.275Z,11.51
2017-03-28T03:16:38.355Z,11.55
2017-03-28T03:17:04.457Z,11.55
2017-03-28T03:17:30.564Z,11.55
2017-03-28T03:17:56.667Z,11.48
2017-03-28T03:18:22.793Z,11.57
2017-03-28T03:18:48.904Z,11.57
2017-03-28T03:19:15.046Z,11.5
2017-03-28T03:19:41.196Z,11.52
2017-03-28T03:20:07.319Z,11.48
2017-03-28T03:20:33.404Z,11.52
2017-03-28T03:20:59.505Z,11.59
2017-03-28T03:21:25.590Z,11.62
2017-03-28T03:21:51.665Z,11.69
2017-03-28T03:22:17.769Z,11.65
2017-03-28T03:22:43.922Z,11.72
2017-03-28T03:23:10.048Z,11.7
2017-03-28T03:23:36.150Z,11.68
2017-03-28T03:24:02.232Z,11.77
2017-03-28T03:24:28.402Z,11.75
2017-03-28T03:24:54.528Z,11.8
2017-03-28T03:25:20.630Z,11.81
2017-03-28T03:25:46.733Z,11.75
2017-03-28T03:26:12.811Z,11.83
2017-03-28T03:26:38.892Z,11.8
2017-03-28T03:27:04.971Z,11.77
2017-03-28T03:27:31.075Z,11.77
2017-03-28T03:27:57.505Z,11.78
2017-03-28T03:28:23.652Z,11.86
2017-03-28T03:28:49.781Z,11.73
2017-03-28T03:29:15.911Z,11.73
2017-03-28T03:29:42.041Z,11.7
2017-03-28T03:30:08.170Z,11.69
2017-03-28T03:30:34.273Z,11.69
2017-03-28T03:31:00.399Z,11.75
2017-03-28T03:31:26.477Z,11.75
2017-03-28T03:31:52.559Z,11.72
2017-03-28T03:32:18.662Z,11.69
2017-03-28T03:32:44.763Z,11.65
2017-03-28T03:33:10.889Z,11.72
2017-03-28T03:33:37.022Z,11.77
2017-03-28T03:34:03.192Z,11.81
2017-03-28T03:34:29.321Z,11.75
2017-03-28T03:34:55.448Z,11.77
2017-03-28T03:35:21.555Z,11.77
2017-03-28T03:35:47.638Z,11.77
2017-03-28T03:36:13.808Z,11.75
2017-03-28T03:36:39.910Z,11.77
2017-03-28T03:37:05.990Z,11.77
2017-03-28T03:37:32.093Z,11.77
2017-03-28T03:37:58.194Z,11.72
2017-03-28T03:38:24.296Z,11.8
2017-03-28T03:38:50.470Z,11.65
2017-03-28T03:39:16.597Z,11.68
2017-03-28T03:39:42.700Z,11.77
2017-03-28T03:40:08.780Z,11.66
2017-03-28T03:40:34.882Z,11.7
2017-03-28T03:41:00.966Z,11.78
2017-03-28T03:41:27.045Z,11.8
2017-03-28T03:41:53.127Z,11.73
2017-03-28T03:42:19.205Z,11.78
2017-03-28T03:42:45.356Z,11.72
2017-03-28T03:43:11.481Z,11.8
2017-03-28T03:43:37.634Z,11.8
2017-03-28T03:44:03.740Z,11.7
2017-03-28T03:44:29.867Z,11.68
2017-03-28T03:44:55.988Z,11.73
2017-03-28T03:45:22.138Z,11.78
2017-03-28T03:45:48.241Z,11.77
2017-03-28T03:46:14.347Z,11.81
2017-03-28T03:46:40.428Z,11.73
2017-03-28T03:47:06.529Z,11.8
2017-03-28T03:47:32.635Z,11.73
2017-03-28T03:47:58.761Z,11.73
2017-03-28T03:48:24.916Z,11.84
2017-03-28T03:48:51.042Z,11.81
2017-03-28T03:49:17.169Z,11.72
2017-03-28T03:49:43.276Z,11.8
2017-03-28T03:50:09.404Z,11.75
2017-03-28T03:50:35.507Z,11.77
2017-03-28T03:51:01.609Z,11.84
2017-03-28T03:51:27.713Z,11.75
2017-03-28T03:51:53.818Z,11.8
2017-03-28T03:52:19.921Z,11.75
2017-03-28T03:52:46.046Z,11.73
2017-03-28T03:53:12.148Z,11.78
2017-03-28T03:53:38.298Z,11.72
2017-03-28T03:54:04.403Z,11.81
2017-03-28T03:54:30.552Z,11.77
2017-03-28T03:54:56.633Z,11.81
2017-03-28T03:55:22.780Z,11.8
2017-03-28T03:55:48.883Z,11.75
2017-03-28T03:56:15.010Z,11.78
2017-03-28T03:56:41.135Z,11.8
2017-03-28T03:57:07.243Z,11.87
2017-03-28T03:57:33.365Z,11.86
2017-03-28T03:57:59.464Z,11.8
2017-03-28T03:58:25.614Z,11.84
2017-03-28T03:58:51.721Z,11.84
2017-03-28T03:59:17.868Z,11.94
2017-03-28T03:59:43.969Z,11.91
2017-03-28T04:00:10.051Z,11.91
2017-03-28T04:00:36.177Z,11.95
2017-03-28T04:01:02.279Z,11.88
2017-03-28T04:01:28.406Z,11.91
2017-03-28T04:01:54.507Z,11.94
2017-03-28T04:02:20.636Z,11.88
2017-03-28T04:02:46.787Z,11.94
2017-03-28T04:03:12.891Z,11.91
2017-03-28T04:03:39.019Z,11.9
2017-03-28T04:04:05.168Z,11.83
2017-03-28T04:04:31.274Z,11.88
2017-03-28T04:04:57.378Z,11.81
2017-03-28T04:05:23.479Z,11.77
2017-03-28T04:05:49.561Z,11.78
2017-03-28T04:06:15.690Z,11.73
2017-03-28T04:06:41.792Z,11.78
2017-03-28T04:07:07.892Z,11.8
2017-03-28T04:07:34.022Z,11.81
2017-03-28T04:08:00.151Z,11.77
2017-03-28T04:08:26.305Z,11.78
2017-03-28T04:08:52.455Z,11.77
2017-03-28T04:09:18.580Z,11.8
2017-03-28T04:09:44.709Z,11.77
2017-03-28T04:10:10.836Z,11.77
2017-03-28T04:10:36.939Z,11.77
2017-03-28T04:11:03.042Z,11.72
2017-03-28T04:11:29.120Z,11.75
2017-03-28T04:11:55.203Z,11.77
2017-03-28T04:12:21.310Z,11.8
2017-03-28T04:12:47.413Z,11.7
2017-03-28T04:13:13.515Z,11.75
2017-03-28T04:13:39.665Z,11.83
2017-03-28T04:14:05.747Z,11.72
2017-03-28T04:14:31.873Z,11.77
2017-03-28T04:14:58.002Z,11.78
2017-03-28T04:15:24.124Z,11.69
2017-03-28T04:15:50.226Z,11.69
2017-03-28T04:16:16.307Z,11.68
2017-03-28T04:16:42.457Z,11.78
2017-03-28T04:17:08.534Z,11.78
2017-03-28T04:17:34.640Z,11.83
2017-03-28T04:18:00.791Z,11.78
2017-03-28T04:18:26.873Z,11.8
2017-03-28T04:18:53.022Z,11.78
2017-03-28T04:19:19.197Z,11.72
2017-03-28T04:19:45.335Z,11.78
2017-03-28T04:20:11.430Z,11.72
2017-03-28T04:20:37.508Z,11.72
2017-03-28T04:21:03.662Z,11.72
2017-03-28T04:21:29.737Z,11.6
2017-03-28T04:21:55.838Z,11.66
2017-03-28T04:22:21.918Z,11.66
2017-03-28T04:22:48.021Z,11.69
2017-03-28T04:23:14.149Z,11.7
2017-03-28T04:23:40.276Z,11.57
2017-03-28T04:24:06.404Z,11.68
2017-03-28T04:24:32.508Z,11.59
2017-03-28T04:24:58.635Z,11.52
2017-03-28T04:25:24.738Z,11.63
2017-03-28T04:25:50.869Z,11.55
2017-03-28T04:26:16.975Z,11.55
2017-03-28T04:26:43.058Z,11.57
2017-03-28T04:27:09.166Z,11.51
2017-03-28T04:27:35.316Z,11.55
2017-03-28T04:28:01.463Z,11.55
2017-03-28T04:28:27.565Z,11.47
2017-03-28T04:28:53.669Z,11.43
2017-03-28T04:29:19.794Z,11.43
2017-03-28T04:29:45.898Z,11.35
2017-03-28T04:30:12.023Z,11.37
2017-03-28T04:30:38.145Z,11.32
2017-03-28T04:31:04.226Z,11.29
2017-03-28T04:31:30.331Z,11.25
2017-03-28T04:31:56.410Z,11.35
2017-03-28T04:32:22.513Z,11.3
2017-03-28T04:32:48.617Z,11.32
2017-03-28T04:33:14.769Z,11.29
2017-03-28T04:33:40.898Z,11.22
2017-03-28T04:34:07.048Z,11.26
2017-03-28T04:34:33.176Z,11.23
2017-03-28T04:34:59.331Z,11.25
2017-03-28T04:35:25.456Z,11.19
2017-03-28T04:35:51.538Z,11.18
2017-03-28T04:36:17.640Z,11.07
2017-03-28T04:36:43.720Z,11.08
2017-03-28T04:37:09.847Z,11.11
2017-03-28T04:37:35.950Z,11.02
2017-03-28T04:38:02.099Z,11.08
2017-03-28T04:38:28.249Z,11.05
2017-03-28T04:38:54.349Z,11
2017-03-28T04:39:20.524Z,11.08
2017-03-28T04:39:46.630Z,11.1
2017-03-28T04:40:12.735Z,10.99
2017-03-28T04:40:38.816Z,11
2017-03-28T04:41:04.897Z,10.99
2017-03-28T04:41:30.977Z,10.97
2017-03-28T04:41:57.103Z,10.97
2017-03-28T04:42:23.183Z,10.97
2017-03-28T04:42:49.287Z,10.94
2017-03-28T04:43:15.412Z,10.93
2017-03-28T04:43:41.561Z,10.94
2017-03-28T04:44:07.711Z,10.93
2017-03-28T04:44:33.815Z,10.92
2017-03-28T04:44:59.921Z,10.9
2017-03-28T04:45:26.046Z,10.86
2017-03-28T04:45:52.171Z,10.86
2017-03-28T04:46:18.251Z,10.92
2017-03-28T04:46:44.332Z,10.87
2017-03-28T04:47:10.434Z,10.86
2017-03-28T04:47:36.534Z,10.89
2017-03-28T04:48:02.663Z,10.94
2017-03-28T04:48:28.767Z,10.96
2017-03-28T04:48:54.851Z,10.96
2017-03-28T04:49:21.002Z,10.97
2017-03-28T04:49:47.127Z,11.07
2017-03-28T04:50:13.254Z,10.99
2017-03-28T04:50:39.356Z,11
2017-03-28T04:51:05.461Z,10.97
2017-03-28T04:51:31.588Z,11.02
2017-03-28T04:51:57.713Z,10.96
2017-03-28T04:52:23.842Z,11.08
2017-03-28T04:52:49.946Z,11.04
2017-03-28T04:53:16.070Z,11.04
2017-03-28T04:53:42.220Z,11.14
2017-03-28T04:54:08.370Z,11.18
2017-03-28T04:54:34.521Z,11.15
2017-03-28T04:55:00.625Z,11.02
2017-03-28T04:55:26.729Z,11.1
2017-03-28T04:55:52.829Z,11.07
2017-03-28T04:56:18.933Z,11.08
2017-03-28T04:56:45.059Z,11.02
2017-03-28T04:57:11.187Z,11.08
2017-03-28T04:57:37.318Z,11.11
2017-03-28T04:58:03.444Z,11.05
2017-03-28T04:58:29.615Z,11.02
2017-03-28T04:58:56.092Z,10.97
2017-03-28T04:59:22.220Z,10.99
2017-03-28T04:59:48.370Z,10.96
2017-03-28T05:00:14.495Z,10.97
2017-03-28T05:00:40.598Z,10.84
2017-03-28T05:01:06.678Z,11.04
2017-03-28T05:01:32.759Z,10.94
2017-03-28T05:01:58.886Z,10.93
2017-03-28T05:02:24.970Z,10.99
2017-03-28T05:02:51.093Z,10.94
2017-03-28T05:03:17.239Z,10.89
2017-03-28T05:03:43.387Z,10.82
2017-03-28T05:04:09.539Z,10.87
2017-03-28T05:04:35.667Z,10.92
2017-03-28T05:05:01.791Z,10.86
2017-03-28T05:05:27.884Z,10.81
2017-03-28T05:05:53.990Z,10.82
2017-03-28T05:06:20.072Z,10.72
2017-03-28T05:06:46.220Z,10.84
2017-03-28T05:07:12.320Z,10.84
2017-03-28T05:07:38.423Z,10.82
2017-03-28T05:08:04.573Z,10.87
2017-03-28T05:08:30.723Z,10.76
2017-03-28T05:08:56.827Z,10.96
2017-03-28T05:09:22.954Z,10.86
2017-03-28T05:09:49.100Z,10.87
2017-03-28T05:10:15.225Z,10.84
2017-03-28T05:10:41.329Z,10.89
2017-03-28T05:11:07.410Z,10.84
2017-03-28T05:11:33.516Z,10.96
2017-03-28T05:11:59.642Z,10.92
2017-03-28T05:12:25.742Z,10.82
2017-03-28T05:12:51.871Z,10.87
2017-03-28T05:13:18.020Z,10.84
2017-03-28T05:13:44.169Z,10.89
2017-03-28T05:14:10.296Z,10.93
2017-03-28T05:14:36.401Z,10.81
2017-03-28T05:15:02.524Z,10.76
2017-03-28T05:15:28.651Z,10.79
2017-03-28T05:15:54.732Z,10.81
2017-03-28T05:16:20.814Z,10.78
2017-03-28T05:16:46.898Z,10.74
2017-03-28T05:17:12.998Z,10.69
2017-03-28T05:17:39.148Z,10.68
2017-03-28T05:18:05.302Z,10.59
2017-03-28T05:18:31.428Z,10.69
2017-03-28T05:18:57.558Z,10.61
2017-03-28T05:19:23.727Z,10.67
2017-03-28T05:19:49.861Z,10.68
2017-03-28T05:20:15.988Z,10.64
2017-03-28T05:20:42.069Z,10.68
2017-03-28T05:21:08.175Z,10.72
2017-03-28T05:21:34.278Z,10.64
2017-03-28T05:22:00.380Z,10.72
2017-03-28T05:22:26.482Z,10.68
2017-03-28T05:22:52.635Z,10.71
2017-03-28T05:23:18.760Z,10.74
2017-03-28T05:23:44.864Z,10.78
2017-03-28T05:24:10.970Z,10.78
2017-03-28T05:24:37.098Z,10.76
2017-03-28T05:25:03.267Z,10.78
2017-03-28T05:25:29.345Z,10.82
2017-03-28T05:25:55.428Z,10.89
2017-03-28T05:26:21.532Z,10.79
2017-03-28T05:26:47.611Z,10.84
2017-03-28T05:27:13.693Z,10.81
2017-03-28T05:27:39.821Z,10.79
2017-03-28T05:28:05.950Z,10.9
2017-03-28T05:28:32.055Z,10.86
2017-03-28T05:28:58.188Z,10.79
2017-03-28T05:29:24.358Z,10.92
2017-03-28T05:29:50.461Z,10.93
2017-03-28T05:30:16.585Z,10.81
2017-03-28T05:30:42.686Z,10.87
2017-03-28T05:31:08.768Z,10.82
2017-03-28T05:31:34.849Z,10.82
2017-03-28T05:32:00.953Z,10.81
2017-03-28T05:32:27.034Z,10.84
2017-03-28T05:32:53.139Z,10.81
2017-03-28T05:33:19.287Z,10.81
2017-03-28T05:33:45.436Z,10.84
2017-03-28T05:34:11.560Z,10.9
2017-03-28T05:34:37.662Z,10.92
2017-03-28T05:35:03.744Z,10.86
2017-03-28T05:35:29.825Z,10.84
2017-03-28T05:35:55.947Z,10.9
2017-03-28T05:36:22.029Z,10.89
2017-03-28T05:36:48.109Z,10.97
2017-03-28T05:37:14.213Z,10.93
2017-03-28T05:37:40.318Z,10.99
2017-03-28T05:38:06.445Z,10.94